createdAt,value
2022-11-18T00:00:34.875Z,9.00
2022-11-18T00:03:01.410Z,9.00
2022-11-18T00:05:27.904Z,9.00
2022-11-18T00:07:54.385Z,9.00
2022-11-18T00:10:20.909Z,9.00
2022-11-18T00:13:06.089Z,9.00
2022-11-18T00:15:32.588Z,9.10
2022-11-18T00:17:59.018Z,9.10
2022-11-18T00:20:25.503Z,9.20
2022-11-18T00:22:51.932Z,9.20
2022-11-18T00:25:18.534Z,9.20
2022-11-18T00:27:44.965Z,9.20
2022-11-18T00:30:11.800Z,9.20
2022-11-18T00:32:38.255Z,9.30
2022-11-18T00:35:04.953Z,9.30
2022-11-18T00:37:31.464Z,9.30
2022-11-18T00:39:57.960Z,9.30
2022-11-18T00:42:43.211Z,9.40
2022-11-18T00:45:10.003Z,9.40
2022-11-18T00:47:36.428Z,9.40
2022-11-18T00:50:03.055Z,9.40
2022-11-18T00:52:29.515Z,9.40
2022-11-18T00:54:55.964Z,9.40
2022-11-18T00:57:22.434Z,9.50
2022-11-18T00:59:48.904Z,9.50
2022-11-18T01:02:15.446Z,9.50
2022-11-18T01:04:41.944Z,9.50
2022-11-18T01:07:08.529Z,9.50
2022-11-18T01:09:35.121Z,9.50
2022-11-18T01:12:20.379Z,9.60
2022-11-18T01:14:46.858Z,9.60
2022-11-18T01:17:13.523Z,9.60
2022-11-18T01:19:39.992Z,9.60
2022-11-18T01:22:06.649Z,9.60
2022-11-18T01:24:33.364Z,9.60
2022-11-18T01:27:01.463Z,9.60
2022-11-18T01:29:28.006Z,9.60
2022-11-18T01:32:23.883Z,9.60
2022-11-18T01:34:40.876Z,9.60
2022-11-18T01:37:07.446Z,9.60
2022-11-18T01:39:34.200Z,9.60
2022-11-18T01:42:00.664Z,9.60
2022-11-18T01:44:45.672Z,9.60
2022-11-18T01:47:13.125Z,9.60
2022-11-18T01:49:39.640Z,9.60
2022-11-18T01:52:06.217Z,9.60
2022-11-18T01:54:37.070Z,9.60
2022-11-18T01:57:05.866Z,9.60
2022-11-18T01:59:34.502Z,9.60
2022-11-18T02:02:02.904Z,9.60
2022-11-18T02:04:29.437Z,9.60
2022-11-18T02:06:56.390Z,9.60
2022-11-18T02:09:22.937Z,9.60
2022-11-18T02:11:54.467Z,9.60
2022-11-18T02:14:26.093Z,9.60
2022-11-18T02:16:52.524Z,9.50
2022-11-18T02:19:29.181Z,9.60
2022-11-18T02:22:01.561Z,9.60
2022-11-18T02:24:38.604Z,9.60
2022-11-18T02:27:05.193Z,9.60
2022-11-18T02:29:43.824Z,9.60
2022-11-18T02:32:13.359Z,9.60
2022-11-18T02:34:44.981Z,9.60
2022-11-18T02:37:18.139Z,9.60
2022-11-18T02:39:51.180Z,9.60
2022-11-18T02:42:17.986Z,9.50
2022-11-18T02:44:47.777Z,9.50
2022-11-18T02:47:15.304Z,9.50
2022-11-18T02:49:43.200Z,9.60
2022-11-18T02:52:11.378Z,9.50
2022-11-18T02:54:39.809Z,9.60
2022-11-18T02:57:06.625Z,9.50
2022-11-18T02:59:33.397Z,9.50
2022-11-18T03:01:59.969Z,9.50
2022-11-18T03:04:27.165Z,9.50
2022-11-18T03:07:03.103Z,9.60
2022-11-18T03:09:32.285Z,9.50
2022-11-18T03:12:14.331Z,9.50
2022-11-18T03:14:40.980Z,9.50
2022-11-18T03:17:15.632Z,9.50
2022-11-18T03:19:49.304Z,9.50
2022-11-18T03:22:19.594Z,9.50
2022-11-18T03:24:49.794Z,9.50
2022-11-18T03:27:25.309Z,9.50
2022-11-18T03:29:58.926Z,9.50
2022-11-18T03:32:27.213Z,9.50
2022-11-18T03:35:01.993Z,9.50
2022-11-18T03:37:28.853Z,9.50
2022-11-18T03:39:58.716Z,9.50
2022-11-18T03:42:27.763Z,9.50
2022-11-18T03:44:56.070Z,9.50
2022-11-18T03:47:26.321Z,9.50
2022-11-18T03:49:55.816Z,9.50
2022-11-18T03:52:24.219Z,9.50
2022-11-18T03:54:52.369Z,9.50
2022-11-18T03:57:25.022Z,9.50
2022-11-18T03:59:53.673Z,9.50
2022-11-18T04:02:21.441Z,9.50
2022-11-18T04:04:49.124Z,9.50
2022-11-18T04:07:28.767Z,9.40
2022-11-18T04:09:57.615Z,9.40
2022-11-18T04:12:25.536Z,9.50
2022-11-18T04:14:55.299Z,9.50
2022-11-18T04:17:23.011Z,9.40
2022-11-18T04:19:49.696Z,9.50
2022-11-18T04:22:16.546Z,9.50
2022-11-18T04:24:42.964Z,9.40
2022-11-18T04:27:09.443Z,9.50
2022-11-18T04:29:36.100Z,9.50
2022-11-18T04:32:03.365Z,9.50
2022-11-18T04:34:30.767Z,9.50
2022-11-18T04:36:57.711Z,9.40
2022-11-18T04:39:24.254Z,9.40
2022-11-18T04:41:56.604Z,9.40
2022-11-18T04:44:27.257Z,9.40
2022-11-18T04:46:54.439Z,9.40
2022-11-18T04:49:21.133Z,9.40
2022-11-18T04:51:48.024Z,9.40
2022-11-18T04:54:15.083Z,9.30
2022-11-18T04:56:48.493Z,9.30
2022-11-18T04:59:17.272Z,9.30
2022-11-18T05:01:44.106Z,9.30
2022-11-18T05:04:14.527Z,9.30
2022-11-18T05:06:41.316Z,9.30
2022-11-18T05:09:07.852Z,9.30
2022-11-18T05:11:52.713Z,9.30
2022-11-18T05:14:19.454Z,9.30
2022-11-18T05:16:45.997Z,9.20
2022-11-18T05:19:12.719Z,9.20
2022-11-18T05:21:39.253Z,9.20
2022-11-18T05:24:05.896Z,9.20
2022-11-18T05:26:32.372Z,9.20
2022-11-18T05:28:58.849Z,9.20
2022-11-18T05:31:25.285Z,9.20
2022-11-18T05:33:51.776Z,9.10
2022-11-18T05:36:19.322Z,9.10
2022-11-18T05:38:45.950Z,9.10
2022-11-18T05:41:32.793Z,9.10
2022-11-18T05:43:59.381Z,9.10
2022-11-18T05:46:26.365Z,9.10
2022-11-18T05:48:53.108Z,9.10
2022-11-18T05:51:19.968Z,9.10
2022-11-18T05:53:47.548Z,9.10
2022-11-18T05:56:19.195Z,9.10
2022-11-18T05:58:45.667Z,9.10
2022-11-18T06:01:14.802Z,9.10
2022-11-18T06:03:41.588Z,9.10
2022-11-18T06:06:09.001Z,9.00
2022-11-18T06:08:37.502Z,9.00
2022-11-18T06:11:04.012Z,9.00
2022-11-18T06:13:34.075Z,9.00
2022-11-18T06:16:00.581Z,9.00
2022-11-18T06:18:28.439Z,9.10
2022-11-18T06:20:56.675Z,9.00
2022-11-18T06:23:23.534Z,9.00
2022-11-18T06:25:49.996Z,9.00
2022-11-18T06:28:16.787Z,9.00
2022-11-18T06:30:43.411Z,9.00
2022-11-18T06:33:09.993Z,8.90
2022-11-18T06:35:36.474Z,9.00
2022-11-18T06:38:03.064Z,8.90
2022-11-18T06:40:34.493Z,9.00
2022-11-18T06:43:26.645Z,9.00
2022-11-18T06:46:11.609Z,9.00
2022-11-18T06:48:38.142Z,9.00
2022-11-18T06:51:05.264Z,8.90
2022-11-18T06:53:31.726Z,8.90
2022-11-18T06:56:02.335Z,8.90
2022-11-18T06:58:28.866Z,8.90
2022-11-18T07:00:55.439Z,8.90
2022-11-18T07:03:22.018Z,8.90
2022-11-18T07:05:48.551Z,9.00
2022-11-18T07:08:15.226Z,9.00
2022-11-18T07:10:41.697Z,9.00
2022-11-18T07:13:08.190Z,9.00
2022-11-18T07:15:34.641Z,9.00
2022-11-18T07:18:01.068Z,9.00
2022-11-18T07:20:28.144Z,9.00
2022-11-18T07:22:54.600Z,9.00
2022-11-18T07:25:21.099Z,9.00
2022-11-18T07:27:47.595Z,9.10
2022-11-18T07:30:14.069Z,9.10
2022-11-18T07:32:40.485Z,9.10
2022-11-18T07:35:07.149Z,9.10
2022-11-18T07:37:33.643Z,9.10
2022-11-18T07:40:00.153Z,9.10
2022-11-18T07:42:26.699Z,9.20
2022-11-18T07:44:53.212Z,9.20
2022-11-18T07:47:19.731Z,9.20
2022-11-18T07:49:46.266Z,9.20
2022-11-18T07:52:12.722Z,9.20
2022-11-18T07:54:39.213Z,9.20
2022-11-18T07:57:05.636Z,9.20
2022-11-18T07:59:32.115Z,9.20
2022-11-18T08:01:59.941Z,9.20
2022-11-18T08:04:26.468Z,9.20
2022-11-18T08:06:52.961Z,9.20
2022-11-18T08:09:19.618Z,9.20
2022-11-18T08:11:46.314Z,9.20
2022-11-18T08:14:12.787Z,9.20
2022-11-18T08:16:39.262Z,9.20
2022-11-18T08:19:05.764Z,9.30
2022-11-18T08:21:32.337Z,9.30
2022-11-18T08:23:58.961Z,9.30
2022-11-18T08:26:26.161Z,9.40
2022-11-18T08:28:53.168Z,9.40
2022-11-18T08:31:21.414Z,9.40
2022-11-18T08:33:47.937Z,9.40
2022-11-18T08:36:15.926Z,9.40
2022-11-18T08:38:42.606Z,9.40
2022-11-18T08:41:16.571Z,9.40
2022-11-18T08:43:43.166Z,9.40
2022-11-18T08:46:09.666Z,9.40
2022-11-18T08:48:36.323Z,9.40
2022-11-18T08:51:02.783Z,9.40
2022-11-18T08:53:29.336Z,9.40
2022-11-18T08:55:57.341Z,9.40
2022-11-18T08:58:24.374Z,9.40
2022-11-18T09:00:50.849Z,9.40
2022-11-18T09:03:17.368Z,9.40
2022-11-18T09:05:44.093Z,9.40
2022-11-18T09:08:10.912Z,9.40
2022-11-18T09:10:37.953Z,9.40
2022-11-18T09:13:33.399Z,9.40
2022-11-18T09:15:50.934Z,9.40
2022-11-18T09:18:17.406Z,9.40
2022-11-18T09:20:54.031Z,9.40
2022-11-18T09:23:20.468Z,9.50
2022-11-18T09:25:46.987Z,9.40
2022-11-18T09:28:13.437Z,9.40
2022-11-18T09:30:39.958Z,9.40
2022-11-18T09:33:07.055Z,9.40
2022-11-18T09:35:33.981Z,9.40
2022-11-18T09:38:00.524Z,9.40
2022-11-18T09:40:27.650Z,9.30
2022-11-18T09:43:07.419Z,9.30
2022-11-18T09:45:38.366Z,9.30
2022-11-18T09:48:14.631Z,9.40
2022-11-18T09:50:50.275Z,9.40
2022-11-18T09:53:20.130Z,9.40
2022-11-18T09:55:47.482Z,9.40
2022-11-18T09:58:20.554Z,9.40
2022-11-18T10:00:47.238Z,9.40
2022-11-18T10:03:15.997Z,9.60
2022-11-18T10:05:42.578Z,9.80
2022-11-18T10:08:24.774Z,10.80
2022-11-18T10:11:10.059Z,11.40
2022-11-18T10:13:56.544Z,11.70
2022-11-18T10:16:29.935Z,11.30
2022-11-18T10:19:19.208Z,11.10
2022-11-18T10:21:57.638Z,11.00
2022-11-18T10:24:25.398Z,10.90
2022-11-18T10:26:55.815Z,10.80
2022-11-18T10:29:23.700Z,10.70
2022-11-18T10:32:04.753Z,10.60
2022-11-18T10:34:32.452Z,10.60
2022-11-18T10:37:00.358Z,10.60
2022-11-18T10:39:27.043Z,10.50
2022-11-18T10:41:55.909Z,10.50
2022-11-18T10:44:30.347Z,10.40
2022-11-18T10:47:14.394Z,10.30
2022-11-18T10:49:40.852Z,10.30
2022-11-18T10:52:11.424Z,10.20
2022-11-18T10:54:38.202Z,10.20
2022-11-18T10:57:11.053Z,10.30
2022-11-18T10:59:40.517Z,10.30
2022-11-18T11:02:16.011Z,10.30
2022-11-18T11:04:43.238Z,10.30
2022-11-18T11:07:35.937Z,10.40
2022-11-18T11:10:19.364Z,10.50
2022-11-18T11:12:53.779Z,10.60
2022-11-18T11:15:38.257Z,10.80
2022-11-18T11:18:25.306Z,10.80
2022-11-18T11:20:52.275Z,10.70
2022-11-18T11:23:23.386Z,10.70
2022-11-18T11:28:51.579Z,10.70
2022-11-18T11:31:20.899Z,10.70
2022-11-18T11:34:00.785Z,10.70
2022-11-18T11:36:45.861Z,10.80
2022-11-18T11:39:36.439Z,10.90
2022-11-18T11:42:14.587Z,11.00
2022-11-18T11:44:49.549Z,11.00
2022-11-18T11:47:46.775Z,11.00
2022-11-18T11:50:16.170Z,11.00
2022-11-18T11:52:50.010Z,10.90
2022-11-18T11:55:16.867Z,10.90
2022-11-18T11:57:51.154Z,11.00
2022-11-18T12:00:19.622Z,10.90
2022-11-18T12:02:49.085Z,10.90
2022-11-18T12:05:17.751Z,10.90
2022-11-18T12:07:46.690Z,11.00
2022-11-18T12:10:16.523Z,11.10
2022-11-18T12:12:50.166Z,11.10
2022-11-18T12:15:25.550Z,11.20
2022-11-18T12:18:12.305Z,11.20
2022-11-18T12:20:40.494Z,11.20
2022-11-18T12:23:17.803Z,11.40
2022-11-18T12:25:47.389Z,11.60
2022-11-18T12:28:29.171Z,11.70
2022-11-18T12:31:14.232Z,11.90
2022-11-18T12:33:45.482Z,11.80
2022-11-18T12:36:32.343Z,11.80
2022-11-18T12:39:18.951Z,11.80
2022-11-18T12:42:04.116Z,12.00
2022-11-18T12:44:31.187Z,12.20
2022-11-18T12:47:01.304Z,12.40
2022-11-18T12:49:27.744Z,12.90
2022-11-18T12:51:55.055Z,13.20
2022-11-18T12:54:33.136Z,13.30
2022-11-18T12:57:04.128Z,13.00
2022-11-18T12:59:36.422Z,12.90
2022-11-18T13:02:04.115Z,12.60
2022-11-18T13:04:30.717Z,12.30
2022-11-18T13:07:00.161Z,12.10
2022-11-18T13:09:29.169Z,11.90
2022-11-18T13:12:03.615Z,11.70
2022-11-18T13:14:53.034Z,11.60
2022-11-18T13:17:54.492Z,11.70
2022-11-18T13:20:31.034Z,11.90
2022-11-18T13:23:24.494Z,11.90
2022-11-18T13:25:51.068Z,12.00
2022-11-18T13:28:25.430Z,12.00
2022-11-18T13:30:59.959Z,12.00
2022-11-18T13:33:26.581Z,11.90
2022-11-18T13:35:53.057Z,11.80
2022-11-18T13:38:27.981Z,11.70
2022-11-18T13:41:04.813Z,11.60
2022-11-18T13:43:32.289Z,11.50
2022-11-18T13:46:00.634Z,11.40
2022-11-18T13:48:28.447Z,11.40
2022-11-18T13:50:56.181Z,11.40
2022-11-18T13:53:38.762Z,11.40
2022-11-18T13:56:06.476Z,11.50
2022-11-18T13:59:10.354Z,11.60
2022-11-18T14:01:28.254Z,11.80
2022-11-18T14:04:02.040Z,12.00
2022-11-18T14:06:30.266Z,12.00
2022-11-18T14:09:06.907Z,12.00
2022-11-18T14:11:43.707Z,11.90
2022-11-18T14:14:10.846Z,11.90
2022-11-18T14:16:39.124Z,11.90
2022-11-18T14:19:05.986Z,11.90
2022-11-18T14:21:34.023Z,11.80
2022-11-18T14:24:01.142Z,11.80
2022-11-18T14:26:28.835Z,11.70
2022-11-18T14:28:56.531Z,11.70
2022-11-18T14:31:23.006Z,11.70
2022-11-18T14:34:08.141Z,11.70
2022-11-18T14:36:34.651Z,11.70
2022-11-18T14:39:25.523Z,11.70
2022-11-18T14:41:47.787Z,11.60
2022-11-18T14:44:14.621Z,11.60
2022-11-18T14:46:41.995Z,11.50
2022-11-18T14:49:18.902Z,11.30
2022-11-18T14:51:45.719Z,11.20
2022-11-18T14:54:13.835Z,11.10
2022-11-18T14:56:40.965Z,11.00
2022-11-18T14:59:07.481Z,10.80
2022-11-18T15:01:34.208Z,10.70
2022-11-18T15:04:00.683Z,10.70
2022-11-18T15:06:28.455Z,10.60
2022-11-18T15:08:54.923Z,10.50
2022-11-18T15:11:21.447Z,10.40
2022-11-18T15:13:47.944Z,10.30
2022-11-18T15:16:16.620Z,10.30
2022-11-18T15:18:43.976Z,10.20
2022-11-18T15:21:10.576Z,10.20
2022-11-18T15:23:37.365Z,10.10
2022-11-18T15:26:10.727Z,9.90
2022-11-18T15:28:37.216Z,9.80
2022-11-18T15:31:03.717Z,9.70
2022-11-18T15:33:30.214Z,9.60
2022-11-18T15:35:56.659Z,9.50
2022-11-18T15:38:23.104Z,9.40
2022-11-18T15:40:49.583Z,9.30
2022-11-18T15:43:17.766Z,9.20
2022-11-18T15:45:44.189Z,9.10
2022-11-18T15:48:10.663Z,9.00
2022-11-18T15:50:37.107Z,8.90
2022-11-18T15:53:03.612Z,8.90
2022-11-18T15:55:30.068Z,8.80
2022-11-18T15:57:56.749Z,8.80
2022-11-18T16:00:23.195Z,8.70
2022-11-18T16:02:49.733Z,8.70
2022-11-18T16:05:18.162Z,8.70
2022-11-18T16:07:44.875Z,8.70
2022-11-18T16:10:30.171Z,8.60
2022-11-18T16:12:56.666Z,8.60
2022-11-18T16:15:41.486Z,8.50
2022-11-18T16:18:07.958Z,8.50
2022-11-18T16:20:34.431Z,8.40
2022-11-18T16:23:00.960Z,8.40
2022-11-18T16:25:27.991Z,8.40
2022-11-18T16:27:54.933Z,8.40
2022-11-18T16:30:40.137Z,8.40
2022-11-18T16:33:06.686Z,8.30
2022-11-18T16:35:33.175Z,8.30
2022-11-18T16:37:59.813Z,8.30
2022-11-18T16:40:28.572Z,8.30
2022-11-18T16:42:55.304Z,8.20
2022-11-18T16:45:21.734Z,8.20
2022-11-18T16:47:48.202Z,8.10
2022-11-18T16:50:14.929Z,8.10
2022-11-18T16:52:41.419Z,8.10
2022-11-18T16:55:08.049Z,8.00
2022-11-18T16:57:34.613Z,8.00
2022-11-18T17:00:01.127Z,8.00
2022-11-18T17:02:27.670Z,8.00
2022-11-18T17:04:54.419Z,8.00
2022-11-18T17:07:21.806Z,8.00
2022-11-18T17:09:48.309Z,8.00
2022-11-18T17:12:14.824Z,8.00
2022-11-18T17:14:41.481Z,8.10
2022-11-18T17:17:07.942Z,8.10
2022-11-18T17:19:34.394Z,8.10
2022-11-18T17:22:00.887Z,8.20
2022-11-18T17:24:27.350Z,8.20
2022-11-18T17:26:54.422Z,8.30
2022-11-18T17:29:21.407Z,8.30
2022-11-18T17:31:48.267Z,8.30
2022-11-18T17:34:15.294Z,8.30
2022-11-18T17:36:42.025Z,8.40
2022-11-18T17:39:10.431Z,8.40
2022-11-18T17:41:55.804Z,8.40
2022-11-18T17:44:22.342Z,8.40
2022-11-18T17:46:49.243Z,8.50
2022-11-18T17:49:17.712Z,8.40
2022-11-18T17:51:45.893Z,8.50
2022-11-18T17:54:13.035Z,8.50
2022-11-18T17:56:39.581Z,8.50
2022-11-18T17:59:06.065Z,8.50
2022-11-18T18:01:32.638Z,8.50
2022-11-18T18:03:59.338Z,8.40
2022-11-18T18:06:26.729Z,8.40
2022-11-18T18:08:56.723Z,8.40
2022-11-18T18:11:23.414Z,8.40
2022-11-18T18:14:08.787Z,8.30
2022-11-18T18:16:35.475Z,8.40
2022-11-18T18:19:04.595Z,8.30
2022-11-18T18:21:31.423Z,8.30
2022-11-18T18:23:58.324Z,8.30
2022-11-18T18:26:29.904Z,8.30
2022-11-18T18:28:58.384Z,8.20
2022-11-18T18:31:24.901Z,8.20
2022-11-18T18:33:51.455Z,8.20
2022-11-18T18:36:18.888Z,8.10
2022-11-18T18:38:45.897Z,8.00
2022-11-18T18:41:17.067Z,8.00
2022-11-18T18:43:43.684Z,7.90
2022-11-18T18:46:31.740Z,8.00
2022-11-18T18:49:20.475Z,8.00
2022-11-18T18:51:50.603Z,8.00
2022-11-18T18:54:18.737Z,8.10
2022-11-18T18:56:45.732Z,8.10
2022-11-18T18:59:12.322Z,8.10
2022-11-18T19:01:39.315Z,8.20
2022-11-18T19:04:06.703Z,8.10
2022-11-18T19:06:56.897Z,8.20
2022-11-18T19:09:20.739Z,8.20
2022-11-18T19:12:05.842Z,8.20
2022-11-18T19:14:33.204Z,8.20
2022-11-18T19:17:03.549Z,8.20
2022-11-18T19:19:51.842Z,8.20
2022-11-18T19:22:18.391Z,8.20
2022-11-18T19:24:52.893Z,8.20
2022-11-18T19:27:20.270Z,8.20
2022-11-18T19:29:46.892Z,8.20
2022-11-18T19:32:13.535Z,8.20
2022-11-18T19:34:40.110Z,8.20
2022-11-18T19:37:06.791Z,8.20
2022-11-18T19:39:34.462Z,8.30
2022-11-18T19:42:01.081Z,8.20
2022-11-18T19:44:27.498Z,8.30
2022-11-18T19:46:53.907Z,8.30
2022-11-18T19:49:20.900Z,8.30
2022-11-18T19:51:47.791Z,8.30
2022-11-18T19:54:14.256Z,8.30
2022-11-18T19:56:40.772Z,8.40
2022-11-18T19:59:07.274Z,8.40
2022-11-18T20:01:33.917Z,8.40
2022-11-18T20:04:05.477Z,8.40
2022-11-18T20:06:33.618Z,8.30
2022-11-18T20:09:00.078Z,8.30
2022-11-18T20:11:27.924Z,8.30
2022-11-18T20:13:54.494Z,8.30
2022-11-18T20:16:22.563Z,8.30
2022-11-18T20:18:53.114Z,8.30
2022-11-18T20:21:20.133Z,8.30
2022-11-18T20:23:47.236Z,8.30
2022-11-18T20:26:15.248Z,8.40
2022-11-18T20:28:42.422Z,8.30
2022-11-18T20:31:10.045Z,8.30
2022-11-18T20:33:37.522Z,8.30
2022-11-18T20:36:05.010Z,8.30
2022-11-18T20:38:31.525Z,8.30
2022-11-18T20:41:00.504Z,8.30
2022-11-18T20:43:27.006Z,8.20
2022-11-18T20:45:55.765Z,8.30
2022-11-18T20:48:22.435Z,8.30
2022-11-18T20:50:49.273Z,8.20
2022-11-18T20:53:16.295Z,8.20
2022-11-18T20:55:42.737Z,8.10
2022-11-18T20:58:09.364Z,8.20
2022-11-18T21:00:35.887Z,8.10
2022-11-18T21:03:02.367Z,8.10
2022-11-18T21:05:30.903Z,8.10
2022-11-18T21:07:57.380Z,8.10
2022-11-18T21:10:23.899Z,8.10
2022-11-18T21:13:09.119Z,8.10
2022-11-18T21:15:35.597Z,8.00
2022-11-18T21:18:02.158Z,8.00
2022-11-18T21:20:47.090Z,8.00
2022-11-18T21:23:13.715Z,7.90
2022-11-18T21:25:40.346Z,7.90
2022-11-18T21:28:06.951Z,7.90
2022-11-18T21:30:33.455Z,7.90
2022-11-18T21:32:59.975Z,7.90
2022-11-18T21:35:26.459Z,7.90
2022-11-18T21:37:52.960Z,7.90
2022-11-18T21:40:19.440Z,7.90
2022-11-18T21:42:45.926Z,7.90
2022-11-18T21:45:12.412Z,7.90
2022-11-18T21:47:38.858Z,7.90
2022-11-18T21:50:05.628Z,7.90
2022-11-18T21:52:32.080Z,7.90
2022-11-18T21:54:58.623Z,7.90
2022-11-18T21:57:25.054Z,7.90
2022-11-18T21:59:51.579Z,8.00
2022-11-18T22:02:17.993Z,8.00
2022-11-18T22:04:53.652Z,8.00
2022-11-18T22:07:21.133Z,8.00
2022-11-18T22:09:47.648Z,8.00
2022-11-18T22:12:14.101Z,8.00
2022-11-18T22:14:41.157Z,8.00
2022-11-18T22:17:07.763Z,7.90
2022-11-18T22:19:34.537Z,7.90
2022-11-18T22:22:01.033Z,7.90
2022-11-18T22:24:27.690Z,7.90
2022-11-18T22:26:54.393Z,7.80
2022-11-18T22:29:21.314Z,7.80
2022-11-18T22:31:47.941Z,7.80
2022-11-18T22:34:14.420Z,7.70
2022-11-18T22:36:41.035Z,7.70
2022-11-18T22:39:07.518Z,7.70
2022-11-18T22:41:52.694Z,7.70
2022-11-18T22:44:19.194Z,7.70
2022-11-18T22:46:45.692Z,7.70
2022-11-18T22:49:12.464Z,7.70
2022-11-18T22:51:39.563Z,7.60
2022-11-18T22:56:53.592Z,7.50
2022-11-18T22:59:20.459Z,7.40
2022-11-18T23:01:47.173Z,7.30
2022-11-18T23:04:13.617Z,7.20
2022-11-18T23:06:40.104Z,7.20
2022-11-18T23:09:06.533Z,7.20
2022-11-18T23:11:51.754Z,7.20
2022-11-18T23:14:18.294Z,7.10
2022-11-18T23:16:44.818Z,7.10
2022-11-18T23:19:12.909Z,7.00
2022-11-18T23:21:39.547Z,7.00
2022-11-18T23:24:06.591Z,7.00
2022-11-18T23:26:33.228Z,6.90
2022-11-18T23:28:59.723Z,6.80
2022-11-18T23:31:27.184Z,6.70
2022-11-18T23:33:54.524Z,6.50
2022-11-18T23:36:21.023Z,6.50
2022-11-18T23:38:47.759Z,6.40
2022-11-18T23:41:15.240Z,6.30
2022-11-18T23:43:42.128Z,6.20
2022-11-18T23:46:09.354Z,6.20
2022-11-18T23:48:36.854Z,6.10
2022-11-18T23:51:04.698Z,6.00
2022-11-18T23:53:33.454Z,6.00
2022-11-18T23:56:00.832Z,5.90
2022-11-18T23:58:27.348Z,5.80
